Time;durP1;ratioP1;P1;durP2;ratioP2;P2;SDS_P1;SDS_P2;PMS_P1;PMS_P2;Temp;Humidity;BMP_temperature;BMP_pressure;BME280_temperature;BME280_humidity;BME280_pressure;Samples;Min_cycle;Max_cycle;Signal;HPM_P1;HPM_P2
2021/09/19 00:01:13;;;;;;;6.60;5.57;;;12.50;99.90;;;13.59;100.00;100518.81;6246592;23;20012;-81
2021/09/19 00:03:40;;;;;;;8.65;5.20;;;12.50;99.90;;;13.61;100.00;100513.63;6219672;23;20012;-88
2021/09/19 00:06:06;;;;;;;7.30;5.80;;;12.50;99.90;;;13.58;100.00;100512.38;6219493;23;20012;-85
2021/09/19 00:08:34;;;;;;;6.95;5.93;;;12.50;99.90;;;13.53;100.00;100515.53;6219199;23;20397;-85
2021/09/19 00:11:00;;;;;;;8.20;6.18;;;12.50;99.90;;;13.52;100.00;100502.69;6219735;23;20142;-85
2021/09/19 00:13:26;;;;;;;5.68;5.07;;;12.40;99.90;;;13.57;100.00;100512.78;6219553;23;20481;-83
2021/09/19 00:15:53;;;;;;;6.88;5.43;;;12.40;99.90;;;13.50;100.00;100507.88;6245835;23;20014;-82
2021/09/19 00:18:19;;;;;;;7.68;6.22;;;12.40;99.90;;;13.45;100.00;100521.44;6219929;23;20012;-83
2021/09/19 00:20:45;;;;;;;5.53;4.97;;;12.30;99.90;;;13.42;100.00;100508.97;6218515;23;20039;-82
2021/09/19 00:23:12;;;;;;;7.47;5.22;;;12.40;99.90;;;13.40;100.00;100508.53;6244039;23;20016;-86
2021/09/19 00:25:44;;;;;;;6.40;5.53;;;12.30;99.90;;;13.34;100.00;100503.63;6249390;23;20015;-88
2021/09/19 00:28:11;;;;;;;6.47;5.82;;;12.30;99.90;;;13.33;100.00;100502.00;6260640;23;20044;-83
2021/09/19 00:30:37;;;;;;;7.68;5.60;;;12.30;99.90;;;13.30;100.00;100500.78;6221918;23;20066;-85
2021/09/19 00:33:04;;;;;;;5.97;5.38;;;12.30;99.90;;;13.26;100.00;100499.91;6218964;23;20023;-85
2021/09/19 00:35:30;;;;;;;7.65;6.05;;;12.20;99.90;;;13.23;100.00;100492.28;6219305;23;20000;-85
2021/09/19 00:37:56;;;;;;;7.55;6.72;;;12.20;99.90;;;13.23;100.00;100495.06;6219194;23;20134;-86
2021/09/19 00:40:23;;;;;;;10.05;6.63;;;12.20;99.90;;;13.19;100.00;100499.84;6219437;23;20004;-86
2021/09/19 00:42:49;;;;;;;7.32;6.03;;;12.20;99.90;;;13.17;100.00;100499.41;6218971;23;20050;-85
2021/09/19 00:45:22;;;;;;;6.80;6.05;;;12.20;99.90;;;13.11;100.00;100493.31;6246197;23;20004;-84
2021/09/19 00:47:48;;;;;;;7.38;5.90;;;12.10;99.90;;;13.13;100.00;100496.53;6219199;23;20031;-85
2021/09/19 00:50:21;;;;;;;7.82;6.93;;;12.10;99.90;;;13.10;100.00;100494.50;6219006;23;20015;-87
2021/09/19 00:52:49;;;;;;;8.07;6.18;;;12.00;99.90;;;13.05;100.00;100494.00;6218733;23;20008;-85
2021/09/19 00:55:18;;;;;;;8.13;6.38;;;11.90;99.90;;;13.02;100.00;100497.56;6219919;23;20457;-86
2021/09/19 00:57:50;;;;;;;7.13;6.40;;;11.90;99.90;;;13.00;100.00;100483.91;6245563;23;20085;-85
2021/09/19 01:00:26;;;;;;;7.95;6.55;;;11.90;99.90;;;12.99;100.00;100484.31;6219938;23;20008;-84
2021/09/19 01:02:53;;;;;;;17.35;6.85;;;11.90;99.90;;;12.96;100.00;100493.47;6219830;23;20008;-84
2021/09/19 01:05:22;;;;;;;8.48;6.85;;;11.80;99.90;;;12.85;100.00;100482.09;6219836;23;20004;-84
2021/09/19 01:07:51;;;;;;;8.73;6.55;;;11.80;99.90;;;12.88;100.00;100491.72;6220137;23;20007;-86
2021/09/19 01:10:23;;;;;;;8.38;6.75;;;11.80;99.90;;;12.83;100.00;100487.28;6220400;23;20398;-84
2021/09/19 01:12:55;;;;;;;10.68;6.80;;;11.80;99.90;;;12.82;100.00;100505.25;6220164;23;20020;-84
2021/09/19 01:15:23;;;;;;;8.80;6.15;;;11.80;99.90;;;12.72;100.00;100493.88;6220014;23;20015;-86
2021/09/19 01:17:49;;;;;;;8.27;6.57;;;11.70;99.90;;;12.73;100.00;100487.91;6245497;23;20018;-84
2021/09/19 01:20:15;;;;;;;7.85;6.18;;;11.60;99.90;;;12.67;100.00;100495.03;6247198;23;20004;-84
2021/09/19 01:23:08;;;;;;;7.68;6.60;;;11.60;99.90;;;12.65;100.00;100500.19;6220479;23;20393;-85
2021/09/19 01:25:36;;;;;;;8.50;7.00;;;11.60;99.90;;;12.64;100.00;100505.00;6220843;23;20012;-84
2021/09/19 01:28:04;;;;;;;9.63;8.32;;;11.60;99.90;;;12.56;100.00;100492.03;6220533;23;20453;-85
2021/09/19 01:30:32;;;;;;;7.80;6.47;;;11.50;99.90;;;12.59;100.00;100501.69;6221259;23;20004;-86
2021/09/19 01:32:58;;;;;;;9.13;7.43;;;11.60;99.90;;;12.51;100.00;100491.56;6221876;23;20016;-84
2021/09/19 01:35:24;;;;;;;11.13;7.72;;;11.40;99.90;;;12.54;100.00;100496.41;6246160;23;20005;-85
2021/09/19 01:37:50;;;;;;;8.32;7.35;;;11.50;99.90;;;12.48;100.00;100486.69;6222069;23;20299;-86
2021/09/19 01:40:17;;;;;;;8.25;7.30;;;11.40;99.90;;;12.47;100.00;100485.88;6248325;23;20428;-83
2021/09/19 01:42:43;;;;;;;9.80;8.27;;;11.50;99.90;;;12.43;100.00;100487.81;6246928;23;20385;-85
2021/09/19 01:45:11;;;;;;;10.98;8.48;;;11.50;99.90;;;12.47;100.00;100494.28;6220867;23;20008;-85
2021/09/19 01:47:37;;;;;;;8.82;7.88;;;11.40;99.90;;;12.48;100.00;100481.91;6220662;23;20011;-86
2021/09/19 01:50:05;;;;;;;9.75;8.02;;;11.40;99.90;;;12.52;100.00;100473.56;6245195;23;20444;-82
2021/09/19 01:52:31;;;;;;;9.82;8.48;;;11.40;99.90;;;12.57;100.00;100482.47;6246828;23;20012;-82
2021/09/19 01:55:00;;;;;;;10.13;8.45;;;11.50;99.90;;;12.56;100.00;100475.22;6220330;23;20012;-83
2021/09/19 01:57:26;;;;;;;10.13;8.40;;;11.50;99.90;;;12.60;100.00;100473.31;6220381;23;20012;-84
2021/09/19 01:59:57;;;;;;;11.20;8.23;;;11.50;99.90;;;12.57;100.00;100470.44;6247071;23;20083;-85
2021/09/19 02:02:24;;;;;;;9.20;7.80;;;11.50;99.90;;;12.53;100.00;100458.34;6220069;23;20011;-85
2021/09/19 02:04:53;;;;;;;10.05;8.30;;;11.50;99.90;;;12.50;100.00;100473.94;6220536;23;20008;-85
2021/09/19 02:07:19;;;;;;;9.27;8.05;;;11.50;99.90;;;12.50;100.00;100470.31;6245561;23;20363;-84
2021/09/19 02:09:45;;;;;;;10.68;9.25;;;11.50;99.90;;;12.44;100.00;100463.41;6245400;23;20099;-83
2021/09/19 02:12:14;;;;;;;12.25;8.38;;;11.50;99.90;;;12.47;100.00;100465.47;6246008;23;20007;-84
2021/09/19 02:14:42;;;;;;;11.15;9.18;;;11.50;99.90;;;12.48;100.00;100462.31;6220481;23;20028;-85
2021/09/19 02:17:11;;;;;;;9.95;8.80;;;11.50;99.90;;;12.47;100.00;100463.47;6245534;23;20004;-85
2021/09/19 02:19:37;;;;;;;10.05;8.82;;;11.50;99.90;;;12.41;100.00;100459.38;6219980;23;20011;-85
2021/09/19 02:22:12;;;;;;;11.93;10.15;;;11.40;99.90;;;12.47;100.00;100463.47;6245335;23;20011;-83
2021/09/19 02:24:40;;;;;;;10.80;8.70;;;11.40;99.90;;;12.42;100.00;100465.78;6246828;23;20000;-83
2021/09/19 02:27:08;;;;;;;9.65;8.65;;;11.40;99.90;;;12.43;100.00;100462.59;6220509;23;20008;-83
2021/09/19 02:29:35;;;;;;;11.25;9.68;;;11.40;99.90;;;12.39;100.00;100458.16;6220395;23;20008;-82
2021/09/19 02:32:01;;;;;;;11.88;9.05;;;11.40;99.90;;;12.35;100.00;100457.28;6220612;23;20373;-84
2021/09/19 02:34:35;;;;;;;11.60;9.48;;;11.40;99.90;;;12.36;100.00;100451.28;6220538;23;20426;-86
2021/09/19 02:37:01;;;;;;;14.68;10.35;;;11.40;99.90;;;12.37;100.00;100460.50;6220619;23;20004;-84
2021/09/19 02:39:27;;;;;;;11.10;9.63;;;11.30;99.90;;;12.31;100.00;100457.22;6220841;23;20004;-83
2021/09/19 02:41:54;;;;;;;12.02;10.38;;;11.30;99.90;;;12.27;100.00;100459.13;6220068;23;20031;-84
2021/09/19 02:44:20;;;;;;;13.38;8.85;;;11.30;99.90;;;12.28;100.00;100459.94;6219968;23;20031;-85
2021/09/19 02:46:46;;;;;;;12.23;10.00;;;11.30;99.90;;;12.26;100.00;100453.91;6223115;23;20000;-85
2021/09/19 02:49:19;;;;;;;10.93;9.38;;;11.30;99.90;;;12.30;100.00;100455.59;6237415;23;20019;-83
2021/09/19 02:51:45;;;;;;;14.57;9.77;;;11.30;99.90;;;12.25;100.00;100452.28;6226153;23;20000;-84
2021/09/19 02:54:12;;;;;;;11.15;9.88;;;11.30;99.90;;;12.30;100.00;100443.56;6219889;23;20028;-86
2021/09/19 02:56:38;;;;;;;12.60;10.00;;;11.30;99.90;;;12.26;100.00;100431.53;6220436;23;20008;-86
2021/09/19 02:59:05;;;;;;;11.63;9.93;;;11.30;99.90;;;12.26;100.00;100442.72;6220540;23;20034;-85
2021/09/19 03:01:42;;;;;;;12.85;9.65;;;11.30;99.90;;;12.27;100.00;100444.31;6220249;23;20012;-85
2021/09/19 03:04:08;;;;;;;13.65;8.93;;;11.30;99.90;;;12.25;100.00;100447.50;6225180;23;20004;-86
2021/09/19 03:06:35;;;;;;;11.05;8.80;;;11.30;99.90;;;12.18;100.00;100447.38;6250809;23;20043;-86
2021/09/19 03:09:02;;;;;;;12.00;8.38;;;11.20;99.90;;;12.14;100.00;100438.91;6248483;23;20018;-84
2021/09/19 03:11:30;;;;;;;10.70;8.27;;;11.10;99.90;;;12.08;100.00;100436.81;6222053;23;20389;-86
2021/09/19 03:13:56;;;;;;;14.23;9.38;;;11.10;99.90;;;12.07;100.00;100440.81;6220483;23;20034;-84
2021/09/19 03:16:23;;;;;;;10.02;8.88;;;11.10;99.90;;;12.02;100.00;100436.31;6220556;23;20350;-83
2021/09/19 03:18:48;;;;;;;12.50;8.80;;;11.10;99.90;;;12.03;100.00;100445.53;6223362;23;20035;-86
2021/09/19 03:21:16;;;;;;;10.90;9.35;;;11.00;99.90;;;11.97;100.00;100442.22;6222821;23;20012;-86
2021/09/19 03:23:45;;;;;;;11.80;8.70;;;11.00;99.90;;;11.95;100.00;100446.56;6221762;23;20457;-86
2021/09/19 03:26:11;;;;;;;11.85;8.73;;;10.90;99.90;;;11.91;100.00;100438.09;6221039;23;19996;-85
2021/09/19 03:28:39;;;;;;;13.88;10.20;;;11.00;99.90;;;11.94;100.00;100444.97;6220451;23;20030;-86
2021/09/19 03:31:10;;;;;;;10.20;9.05;;;10.90;99.90;;;11.90;100.00;100439.31;6219901;23;20095;-85
2021/09/19 03:33:38;;;;;;;11.32;9.25;;;10.90;99.90;;;11.93;100.00;100444.16;6222344;23;20066;-85
2021/09/19 03:36:04;;;;;;;14.73;10.23;;;10.90;99.90;;;11.93;100.00;100441.34;6222249;23;20012;-85
2021/09/19 03:38:30;;;;;;;16.13;10.93;;;10.90;99.90;;;11.95;100.00;100452.16;6221999;23;20314;-84
2021/09/19 03:40:56;;;;;;;11.82;9.13;;;10.90;99.90;;;11.92;100.00;100439.72;6219726;23;20398;-85
2021/09/19 03:43:22;;;;;;;15.43;10.60;;;10.90;99.90;;;11.90;100.00;100441.28;6219538;23;20004;-84
2021/09/19 03:45:49;;;;;;;15.18;10.52;;;11.00;99.90;;;11.88;100.00;100438.84;6219543;23;20117;-85
2021/09/19 03:48:17;;;;;;;14.30;10.10;;;10.90;99.90;;;11.85;100.00;100444.38;6219292;23;20027;-83
2021/09/19 03:50:44;;;;;;;13.15;10.65;;;10.90;99.90;;;11.95;100.00;100444.56;6218993;23;20079;-86
2021/09/19 03:53:25;;;;;;;12.60;10.82;;;10.90;99.90;;;11.94;100.00;100440.19;6219578;23;20008;-84
2021/09/19 03:55:59;;;;;;;15.02;12.05;;;11.00;99.90;;;11.97;100.00;100453.44;6218903;23;20442;-86
2021/09/19 03:58:25;;;;;;;14.00;10.40;;;10.90;99.90;;;11.96;100.00;100440.59;6219018;23;20330;-84
2021/09/19 04:00:53;;;;;;;13.73;10.27;;;10.90;99.90;;;11.92;100.00;100436.94;6219168;23;20158;-84
2021/09/19 04:03:19;;;;;;;14.30;10.85;;;10.90;99.90;;;11.95;100.00;100444.56;6219394;23;20549;-84
2021/09/19 04:05:45;;;;;;;14.68;10.18;;;10.90;99.90;;;11.91;100.00;100435.28;6219482;23;20004;-86
2021/09/19 04:08:13;;;;;;;15.98;11.85;;;10.90;99.90;;;11.94;100.00;100442.97;6219975;23;20092;-86
2021/09/19 04:10:51;;;;;;;;;;;;;;;;;;;;;
2021/09/19 04:13:20;;;;;;;14.70;10.82;;;11.00;99.90;;;11.95;100.00;100447.38;6246077;23;20099;-86
2021/09/19 04:15:45;;;;;;;17.00;12.48;;;10.90;99.90;;;12.03;100.00;100445.53;6219032;23;20042;-85
2021/09/19 04:18:14;;;;;;;15.15;11.55;;;11.00;99.90;;;12.08;100.00;100445.19;6219488;23;20012;-85
2021/09/19 04:20:42;;;;;;;15.50;11.73;;;11.00;99.90;;;11.96;100.00;100443.41;6219888;23;20031;-84
2021/09/19 04:23:12;;;;;;;15.55;10.90;;;11.00;99.90;;;11.96;100.00;100437.81;6219511;23;20000;-84
2021/09/19 04:25:38;;;;;;;13.95;11.20;;;11.00;99.90;;;11.97;100.00;100442.22;6219573;23;20008;-85
2021/09/19 04:28:04;;;;;;;14.98;11.57;;;10.90;99.90;;;12.00;100.00;100458.28;6219159;23;20457;-85
2021/09/19 04:30:33;;;;;;;14.98;12.02;;;10.90;99.90;;;11.99;100.00;100447.44;6219064;23;20058;-84
2021/09/19 04:32:59;;;;;;;16.58;11.77;;;10.90;99.90;;;11.95;100.00;100444.56;6218402;23;20047;-85
2021/09/19 04:35:28;;;;;;;19.48;12.57;;;10.90;99.90;;;11.96;100.00;100449.00;6218817;23;20027;-83
2021/09/19 04:37:54;;;;;;;16.38;12.20;;;10.90;99.90;;;11.91;100.00;100445.72;6219289;23;20015;-85
2021/09/19 04:40:21;;;;;;;17.25;12.95;;;10.80;99.90;;;11.91;100.00;100451.31;6219297;23;20012;-84
2021/09/19 04:42:47;;;;;;;16.98;12.50;;;10.90;99.90;;;11.92;100.00;100452.91;6244343;23;20015;-84
2021/09/19 04:45:13;;;;;;;16.02;11.63;;;10.80;99.90;;;11.94;100.00;100453.34;6219237;23;20374;-86
2021/09/19 04:47:39;;;;;;;15.63;12.00;;;10.80;99.90;;;11.82;100.00;100439.53;6219297;23;20444;-85
2021/09/19 04:50:07;;;;;;;18.42;13.38;;;10.80;99.90;;;11.78;100.00;100444.25;6218949;23;20012;-85
2021/09/19 04:52:33;;;;;;;18.02;13.55;;;10.70;99.90;;;11.79;100.00;100451.44;6219316;23;20008;-85
2021/09/19 04:55:01;;;;;;;18.35;12.05;;;10.80;99.90;;;11.75;100.00;100445.00;6219741;23;20041;-83
2021/09/19 04:57:27;;;;;;;16.92;13.02;;;10.70;99.90;;;11.78;100.00;100442.28;6220205;23;20346;-85
2021/09/19 04:59:53;;;;;;;17.20;12.57;;;10.80;99.90;;;11.76;100.00;100441.00;6220180;23;20004;-84
2021/09/19 05:02:19;;;;;;;16.63;11.98;;;10.70;99.90;;;11.76;100.00;100441.81;6220452;23;20004;-84
2021/09/19 05:04:45;;;;;;;16.55;12.55;;;10.80;99.90;;;11.77;100.00;100442.63;6221995;23;20011;-84
2021/09/19 05:07:11;;;;;;;18.50;14.30;;;10.80;99.90;;;11.79;100.00;100446.66;6221775;23;20008;-87
2021/09/19 05:09:37;;;;;;;17.55;12.38;;;10.80;99.90;;;11.82;100.00;100450.72;6238213;23;20007;-85
2021/09/19 05:12:10;;;;;;;20.67;13.43;;;10.80;99.90;;;11.76;100.00;100447.41;6230378;23;20082;-85
2021/09/19 05:14:36;;;;;;;19.13;13.02;;;10.70;99.90;;;11.73;100.00;100453.75;6220861;23;20087;-84
2021/09/19 05:17:03;;;;;;;18.05;14.15;;;10.80;99.90;;;11.73;100.00;100455.75;6221155;23;20029;-84
2021/09/19 05:19:36;;;;;;;16.92;13.50;;;10.70;99.90;;;11.67;100.00;100449.63;6220912;23;20004;-82
2021/09/19 05:22:02;;;;;;;19.00;13.55;;;10.70;99.90;;;11.71;100.00;100453.31;6220541;23;20083;-86
2021/09/19 05:24:28;;;;;;;18.55;13.07;;;10.70;99.90;;;11.78;100.00;100463.84;6220694;23;20031;-86
2021/09/19 05:26:54;;;;;;;19.15;13.23;;;10.70;99.90;;;11.72;100.00;100452.13;6220877;23;20027;-87
2021/09/19 05:29:21;;;;;;;17.77;14.25;;;10.70;99.90;;;11.78;100.00;100469.44;6220896;23;20088;-85
2021/09/19 05:31:47;;;;;;;16.95;12.80;;;10.70;99.90;;;11.74;100.00;100466.56;6246770;23;20008;-85
2021/09/19 05:34:13;;;;;;;21.00;14.68;;;10.70;99.90;;;11.75;100.00;100467.38;6222182;23;20298;-84
2021/09/19 05:36:39;;;;;;;19.52;13.55;;;10.70;99.90;;;11.74;100.00;100465.75;6222431;23;20008;-85
2021/09/19 05:39:05;;;;;;;18.85;14.27;;;10.70;99.90;;;11.72;100.00;100471.72;6221908;23;20008;-85
2021/09/19 05:41:32;;;;;;;18.52;14.27;;;10.80;99.90;;;11.77;100.00;100468.63;6248348;23;20338;-84
2021/09/19 05:44:01;;;;;;;16.52;12.80;;;10.80;99.90;;;11.80;100.00;100467.06;6221636;23;20067;-86
2021/09/19 05:46:28;;;;;;;17.25;12.68;;;10.80;99.90;;;11.85;100.00;100466.75;6221622;23;20031;-84
2021/09/19 05:48:54;;;;;;;17.70;13.50;;;10.80;99.90;;;11.90;100.00;100461.69;6221858;23;20008;-83
2021/09/19 05:51:23;;;;;;;18.02;13.68;;;10.80;99.90;;;11.92;100.00;100456.50;6222163;23;20319;-85
2021/09/19 05:53:49;;;;;;;15.45;11.63;;;10.90;99.90;;;12.01;100.00;100459.06;6221742;23;20004;-84
2021/09/19 05:56:16;;;;;;;22.52;14.13;;;10.90;99.90;;;12.04;100.00;100456.31;6221638;23;20012;-86
2021/09/19 05:58:42;;;;;;;18.35;12.80;;;11.00;99.90;;;12.15;100.00;100462.13;6221786;23;20015;-83
2021/09/19 06:01:09;;;;;;;17.40;12.82;;;11.00;99.90;;;12.23;100.00;100469.47;6221267;23;20406;-84
2021/09/19 06:03:38;;;;;;;21.08;13.57;;;11.10;99.90;;;12.32;100.00;100458.03;6247946;23;20004;-84
2021/09/19 06:06:04;;;;;;;18.60;13.82;;;11.20;99.90;;;12.42;100.00;100469.41;6249083;23;20071;-84
2021/09/19 06:08:30;;;;;;;17.17;11.70;;;11.30;99.90;;;12.51;100.00;100467.16;6220907;23;20427;-85
2021/09/19 06:10:57;;;;;;;17.52;11.90;;;11.40;99.90;;;12.65;100.00;100481.38;6221305;23;20008;-86
2021/09/19 06:13:23;;;;;;;14.80;10.50;;;11.50;99.90;;;12.76;100.00;100475.94;6221798;23;20015;-84
2021/09/19 06:15:48;;;;;;;17.05;13.05;;;11.60;99.90;;;12.95;100.00;100475.03;6221434;23;20008;-84
2021/09/19 06:18:15;;;;;;;14.45;10.48;;;11.70;99.90;;;13.28;100.00;100474.31;6221225;23;20018;-85
2021/09/19 06:20:41;;;;;;;16.80;11.52;;;11.80;99.90;;;13.69;100.00;100479.66;6221525;23;20012;-85
2021/09/19 06:23:08;;;;;;;12.77;9.93;;;11.90;99.90;;;14.08;100.00;100487.69;6222288;23;20014;-83
2021/09/19 06:25:35;;;;;;;11.13;8.48;;;12.20;99.90;;;14.47;100.00;100497.34;6221811;23;20011;-84
2021/09/19 06:28:01;;;;;;;10.30;8.10;;;12.40;99.90;;;14.90;100.00;100487.22;6247123;23;20016;-85
2021/09/19 06:30:28;;;;;;;8.05;6.63;;;12.70;99.90;;;14.73;100.00;100480.28;6220743;23;20015;-86
2021/09/19 06:32:54;;;;;;;12.35;8.30;;;12.60;99.90;;;14.51;100.00;100478.47;6220993;23;20004;-85
2021/09/19 06:35:28;;;;;;;9.93;7.32;;;12.70;99.90;;;14.33;100.00;100485.13;6221985;23;20008;-85
2021/09/19 06:37:54;;;;;;;9.18;7.68;;;12.70;99.90;;;14.04;100.00;100478.41;6246647;23;20008;-85
2021/09/19 06:40:23;;;;;;;10.18;7.32;;;12.60;99.90;;;13.94;100.00;100488.34;6221577;23;20018;-85
2021/09/19 06:42:51;;;;;;;9.27;8.05;;;12.50;99.90;;;13.91;100.00;100489.13;6220825;23;20008;-83
2021/09/19 06:45:20;;;;;;;10.38;7.65;;;12.60;99.90;;;13.87;100.00;100479.06;6247871;23;20430;-83
2021/09/19 06:47:46;;;;;;;8.90;7.85;;;12.60;99.90;;;13.92;100.00;100478.69;6220429;23;20335;-84
2021/09/19 06:50:13;;;;;;;11.32;7.35;;;12.60;99.90;;;13.97;100.00;100478.34;6220416;23;20430;-85
2021/09/19 06:52:40;;;;;;;9.30;7.95;;;12.70;99.90;;;14.12;100.00;100496.97;6220509;23;20035;-84
2021/09/19 06:55:08;;;;;;;10.48;7.70;;;12.80;99.90;;;14.25;100.00;100495.50;6220900;23;20008;-82
2021/09/19 06:57:34;;;;;;;9.55;7.63;;;12.90;99.90;;;14.33;100.00;100499.16;6220355;23;20007;-85
2021/09/19 07:00:01;;;;;;;10.40;8.43;;;13.00;99.90;;;14.36;100.00;100484.38;6220847;23;20058;-85
2021/09/19 07:02:27;;;;;;;8.85;7.53;;;13.10;99.90;;;14.48;100.00;100495.34;6221215;23;20106;-85
2021/09/19 07:04:53;;;;;;;9.57;7.10;;;13.20;99.90;;;14.44;100.00;100489.69;6225140;23;20075;-86
2021/09/19 07:07:19;;;;;;;8.95;6.75;;;13.20;99.90;;;14.55;100.00;100484.13;6231508;23;20027;-83
2021/09/19 07:09:46;;;;;;;7.75;6.60;;;13.30;99.90;;;14.62;99.79;100490.63;6232491;23;20004;-84
2021/09/19 07:12:12;;;;;;;10.93;7.55;;;13.40;99.90;;;14.71;99.85;100493.09;6247157;23;20320;-83
2021/09/19 07:14:38;;;;;;;9.63;6.90;;;13.50;99.90;;;14.79;99.29;100489.16;6220555;23;20015;-85
2021/09/19 07:17:04;;;;;;;10.68;7.07;;;13.50;99.90;;;14.87;99.04;100487.19;6221131;23;20457;-84
2021/09/19 07:19:30;;;;;;;8.25;7.13;;;13.50;99.90;;;14.91;99.16;100493.66;6220851;23;20004;-82
2021/09/19 07:21:56;;;;;;;10.60;7.63;;;13.60;99.90;;;15.00;97.80;100482.84;6220777;23;20384;-84
2021/09/19 07:24:22;;;;;;;10.73;7.53;;;13.80;99.90;;;15.11;97.75;100486.56;6246258;23;20028;-83
2021/09/19 07:26:48;;;;;;;9.07;7.03;;;13.80;99.90;;;15.21;97.45;100486.63;6221187;23;20466;-85
2021/09/19 07:29:16;;;;;;;9.55;7.53;;;13.90;99.90;;;15.30;97.97;100491.91;6227342;23;20076;-85
2021/09/19 07:31:42;;;;;;;10.13;7.65;;;13.90;99.90;;;15.42;97.04;100493.56;6262600;23;20073;-84
2021/09/19 07:34:09;;;;;;;9.00;7.63;;;14.10;99.90;;;15.48;96.73;100489.19;6248682;23;20027;-85
2021/09/19 07:36:36;;;;;;;9.82;8.25;;;14.10;99.90;;;15.47;95.92;100481.94;6247303;23;20012;-85
2021/09/19 07:39:07;;;;;;;10.73;7.43;;;14.20;99.90;;;15.62;95.92;100490.06;6220257;23;20016;-83
2021/09/19 07:41:34;;;;;;;9.75;7.45;;;14.30;99.90;;;15.65;95.57;100492.09;6219942;23;20091;-84
2021/09/19 07:44:06;;;;;;;9.30;7.57;;;14.40;99.90;;;15.70;95.93;100496.53;6244918;23;20015;-86
2021/09/19 07:46:32;;;;;;;8.25;6.72;;;14.40;99.90;;;15.84;95.53;100493.75;6220165;23;20106;-84
2021/09/19 07:48:58;;;;;;;8.30;7.03;;;14.50;99.90;;;15.98;95.40;100496.63;6220064;23;20008;-85
2021/09/19 07:51:25;;;;;;;8.57;7.07;;;14.60;99.90;;;16.11;93.90;100497.88;6245014;23;20094;-84
2021/09/19 07:53:52;;;;;;;8.60;6.97;;;14.70;99.90;;;16.21;93.50;100502.69;6247243;23;20008;-83
2021/09/19 07:56:21;;;;;;;9.27;7.35;;;14.80;99.90;;;16.34;93.19;100500.31;6247295;23;20004;-86
2021/09/19 07:58:48;;;;;;;9.25;6.50;;;14.90;99.90;;;16.43;93.27;100497.91;6220545;23;20042;-85
2021/09/19 08:01:16;;;;;;;7.75;6.32;;;15.10;99.90;;;16.60;92.88;100502.00;6246026;23;20004;-86
2021/09/19 08:03:42;;;;;;;6.60;5.70;;;15.10;99.90;;;16.71;92.56;100497.94;6220911;23;20008;-85
2021/09/19 08:06:09;;;;;;;7.20;5.93;;;15.30;99.90;;;16.79;92.13;100504.41;6221738;23;20063;-85
2021/09/19 08:08:35;;;;;;;6.60;5.80;;;15.40;99.90;;;16.83;91.43;100496.72;6248355;23;20004;-86
2021/09/19 08:11:01;;;;;;;7.90;6.20;;;15.50;99.90;;;16.79;91.70;100504.41;6222575;23;20012;-86
2021/09/19 08:13:26;;;;;;;10.10;7.05;;;15.60;99.90;;;16.88;91.63;100506.81;6247101;23;20426;-84
2021/09/19 08:15:52;;;;;;;9.43;6.85;;;15.60;99.90;;;16.96;90.82;100516.84;6221620;23;20022;-83
2021/09/19 08:18:18;;;;;;;9.93;6.85;;;15.70;99.90;;;17.04;90.80;100512.84;6221487;23;20008;-83
2021/09/19 08:20:44;;;;;;;9.38;6.90;;;15.80;99.90;;;17.04;91.79;100510.00;6222642;23;20008;-83
2021/09/19 08:23:11;;;;;;;11.10;6.65;;;15.80;99.90;;;17.14;90.98;100503.56;6223262;23;20028;-84
2021/09/19 08:25:37;;;;;;;8.13;6.85;;;15.80;99.90;;;17.22;91.25;100513.59;6222877;23;20004;-85
2021/09/19 08:28:03;;;;;;;8.38;6.50;;;16.00;99.90;;;17.32;90.24;100522.06;6247184;23;20073;-84
2021/09/19 08:30:29;;;;;;;8.90;6.57;;;16.10;99.90;;;17.43;90.79;100524.06;6221043;23;20015;-86
2021/09/19 08:32:55;;;;;;;9.35;6.82;;;16.10;99.90;;;17.44;88.92;100520.00;6247825;23;20008;-83
2021/09/19 08:35:21;;;;;;;7.88;6.20;;;16.20;99.90;;;17.53;88.51;100529.63;6246700;23;20011;-84
2021/09/19 08:37:47;;;;;;;7.25;5.90;;;16.30;99.90;;;17.66;88.49;100528.00;6252177;23;20012;-83
2021/09/19 08:40:14;;;;;;;8.30;6.55;;;16.30;99.90;;;17.71;88.73;100526.81;6250574;23;20019;-84
2021/09/19 08:42:58;;;;;;;7.80;5.93;;;16.40;99.90;;;17.70;87.18;100530.81;6224309;23;20032;-82
2021/09/19 08:45:25;;;;;;;9.52;6.93;;;16.40;99.90;;;17.66;87.43;100524.41;6249134;23;20046;-81
2021/09/19 08:48:01;;;;;;;8.27;6.95;;;16.40;99.90;;;17.67;86.49;100531.66;6223813;23;20016;-84
2021/09/19 08:50:27;;;;;;;7.80;6.38;;;16.50;99.90;;;17.95;86.66;100530.75;6248657;23;20020;-81
2021/09/19 08:52:53;;;;;;;9.95;6.63;;;16.60;99.90;;;18.04;86.02;100525.44;6248506;23;20019;-84
2021/09/19 08:55:36;;;;;;;;;;;;;;;;;;;;;
2021/09/19 08:58:02;;;;;;;8.15;5.95;;;16.80;99.90;;;18.36;84.65;100538.19;6249134;23;20086;-84
2021/09/19 09:00:47;;;;;;;9.68;6.70;;;16.90;99.90;;;18.35;83.49;100545.03;6251803;23;20031;-84
2021/09/19 09:03:19;;;;;;;7.47;6.05;;;17.00;99.90;;;18.44;82.57;100545.38;6221128;23;20039;-84
2021/09/19 09:06:04;;;;;;;9.50;6.93;;;17.10;99.90;;;18.36;82.53;100545.84;6248563;23;20000;-84
2021/09/19 09:08:33;;;;;;;8.40;6.32;;;17.10;99.90;;;18.49;82.47;100537.69;6222118;23;20095;-84
2021/09/19 09:11:07;;;;;;;7.65;6.25;;;17.20;99.90;;;18.60;81.91;100546.91;6220852;23;20019;-82
2021/09/19 09:13:39;;;;;;;7.47;6.07;;;17.40;99.90;;;18.71;81.64;100539.19;6221618;23;20004;-85
2021/09/19 09:16:21;;;;;;;7.55;5.70;;;17.50;99.90;;;18.95;81.49;100547.44;6220926;23;20043;-83
2021/09/19 09:18:52;;;;;;;8.52;6.47;;;17.60;99.90;;;19.04;78.89;100540.50;6222133;23;20004;-84
2021/09/19 09:21:25;;;;;;;7.53;5.90;;;17.70;99.90;;;18.83;80.75;100549.97;6249022;23;20008;-85
2021/09/19 09:23:59;;;;;;;8.27;5.75;;;17.70;99.90;;;19.05;79.63;100542.09;6248329;23;20426;-85
2021/09/19 09:26:37;;;;;;;10.85;6.90;;;17.80;99.90;;;19.32;79.64;100545.91;6222206;23;20004;-84
2021/09/19 09:29:11;;;;;;;8.48;6.00;;;17.90;99.90;;;19.49;79.62;100549.81;6246950;23;20004;-84
2021/09/19 09:31:51;;;;;;;7.72;5.80;;;18.10;99.90;;;19.46;78.33;100545.75;6221926;23;20008;-83
2021/09/19 09:34:25;;;;;;;8.30;5.93;;;18.10;99.90;;;19.38;77.12;100549.88;6248657;23;20446;-84
2021/09/19 09:36:59;;;;;;;6.70;5.63;;;18.10;99.90;;;19.32;78.58;100548.72;6247167;23;20012;-83
2021/09/19 09:39:45;;;;;;;9.50;5.82;;;18.20;99.90;;;19.56;77.51;100553.34;6222415;23;20030;-85
2021/09/19 09:42:23;;;;;;;9.20;5.65;;;18.30;99.90;;;19.78;76.22;100549.03;6247644;23;20346;-85
2021/09/19 09:44:56;;;;;;;7.43;5.70;;;18.40;99.90;;;19.88;76.59;100555.81;6248892;23;20377;-83
2021/09/19 09:47:33;;;;;;;8.88;5.88;;;18.50;99.90;;;19.90;75.17;100542.84;6246820;23;20416;-83
2021/09/19 09:50:04;;;;;;;7.95;5.47;;;18.70;99.90;;;19.78;74.82;100545.41;6254411;23;20016;-82
2021/09/19 09:52:37;;;;;;;6.53;5.13;;;18.60;99.90;;;20.04;74.80;100549.53;6241576;23;20004;-85
2021/09/19 09:55:13;;;;;;;8.20;5.90;;;18.60;99.90;;;20.23;73.78;100549.66;6250055;23;20004;-84
2021/09/19 09:58:09;;;;;;;7.95;5.90;;;18.70;99.90;;;20.22;73.31;100550.91;6222793;23;20066;-84
2021/09/19 10:00:37;;;;;;;7.22;5.07;;;18.80;99.90;;;20.36;73.33;100541.41;6220952;23;20015;-85
2021/09/19 10:03:11;;;;;;;10.13;6.13;;;19.00;99.90;;;20.15;72.97;100539.66;6248741;23;20329;-85
2021/09/19 10:05:42;;;;;;;9.05;6.43;;;18.90;99.90;;;20.08;73.38;100534.09;6248719;23;20012;-85
2021/09/19 10:08:09;;;;;;;9.35;5.28;;;18.90;99.90;;;20.11;72.97;100536.06;6247872;23;20000;-85
2021/09/19 10:10:46;;;;;;;5.72;5.07;;;18.90;99.90;;;20.09;73.02;100538.53;6220141;23;20012;-86
2021/09/19 10:13:31;;;;;;;;;;;;;;;;;;;;;